createdAt,value
2023-11-01T00:00:14.034Z,0.00
2023-11-01T00:01:14.046Z,0.00
2023-11-01T00:02:14.033Z,0.00
2023-11-01T00:03:14.185Z,0.00
2023-11-01T00:04:14.023Z,0.00
2023-11-01T00:05:13.978Z,0.00
2023-11-01T00:06:13.975Z,0.00
2023-11-01T00:07:13.935Z,0.00
2023-11-01T00:08:13.938Z,0.00
2023-11-01T00:09:13.917Z,0.00
2023-11-01T00:10:13.922Z,0.00
2023-11-01T00:11:13.934Z,0.00
2023-11-01T00:12:13.881Z,0.00
2023-11-01T00:13:13.877Z,0.00
2023-11-01T00:14:13.904Z,0.00
2023-11-01T00:15:13.861Z,0.00
2023-11-01T00:16:13.888Z,0.00
2023-11-01T00:17:13.851Z,0.00
2023-11-01T00:18:13.836Z,0.00
2023-11-01T00:19:13.823Z,0.00
2023-11-01T00:20:13.868Z,0.00
2023-11-01T00:21:13.801Z,0.00
2023-11-01T00:22:13.769Z,0.00
2023-11-01T00:23:13.803Z,0.00
2023-11-01T00:24:13.758Z,0.00
2023-11-01T00:25:13.817Z,0.00
2023-11-01T00:26:13.740Z,0.00
2023-11-01T00:27:13.717Z,0.00
2023-11-01T00:28:13.708Z,0.00
2023-11-01T00:29:13.758Z,0.00
2023-11-01T00:30:13.700Z,0.00
2023-11-01T00:31:13.673Z,0.00
2023-11-01T00:32:13.698Z,0.00
2023-11-01T00:33:13.751Z,0.00
2023-11-01T00:34:13.688Z,0.00
2023-11-01T00:35:13.716Z,0.00
2023-11-01T00:36:13.620Z,0.00
2023-11-01T00:37:13.632Z,0.00
2023-11-01T00:38:13.647Z,0.00
2023-11-01T00:39:13.590Z,0.00
2023-11-01T00:40:13.587Z,0.00
2023-11-01T00:41:13.588Z,0.00
2023-11-01T00:42:13.558Z,0.00
2023-11-01T00:43:13.554Z,0.00
2023-11-01T00:44:13.574Z,0.00
2023-11-01T00:45:13.519Z,0.00
2023-11-01T00:46:13.541Z,0.00
2023-11-01T00:47:13.582Z,0.00
2023-11-01T00:48:13.560Z,0.00
2023-11-01T00:49:13.473Z,0.00
2023-11-01T00:50:13.531Z,0.00
2023-11-01T00:51:13.450Z,0.00
2023-11-01T00:52:13.452Z,0.00
2023-11-01T00:53:13.449Z,0.00
2023-11-01T00:54:13.425Z,0.00
2023-11-01T00:55:13.440Z,0.00
2023-11-01T00:56:13.429Z,0.00
2023-11-01T00:57:13.406Z,0.00
2023-11-01T00:58:13.382Z,0.00
2023-11-01T00:59:13.395Z,0.00
2023-11-01T01:00:13.367Z,0.00
2023-11-01T01:01:13.368Z,0.00
2023-11-01T01:02:13.388Z,0.00
2023-11-01T01:03:13.418Z,0.00
2023-11-01T01:04:13.403Z,0.00
2023-11-01T01:05:13.323Z,0.00
2023-11-01T01:06:13.306Z,0.00
2023-11-01T01:07:13.281Z,0.00
2023-11-01T01:08:13.280Z,0.00
2023-11-01T01:09:13.343Z,0.00
2023-11-01T01:10:13.250Z,0.00
2023-11-01T01:11:13.325Z,0.00
2023-11-01T01:12:13.234Z,0.00
2023-11-01T01:13:13.218Z,0.00
2023-11-01T01:14:13.232Z,0.00
2023-11-01T01:15:13.217Z,0.00
2023-11-01T01:16:13.226Z,0.00
2023-11-01T01:17:13.181Z,0.00
2023-11-01T01:18:13.209Z,0.00
2023-11-01T01:19:13.154Z,0.00
2023-11-01T01:20:13.203Z,0.00
2023-11-01T01:21:13.130Z,0.00
2023-11-01T01:22:13.122Z,0.00
2023-11-01T01:23:13.166Z,0.00
2023-11-01T01:24:13.097Z,0.00
2023-11-01T01:25:13.105Z,0.00
2023-11-01T01:26:13.107Z,0.00
2023-11-01T01:27:13.064Z,0.00
2023-11-01T01:28:13.056Z,0.00
2023-11-01T01:29:13.070Z,0.00
2023-11-01T01:30:13.046Z,0.00
2023-11-01T01:31:13.063Z,0.00
2023-11-01T01:32:13.020Z,0.00
2023-11-01T01:33:13.027Z,0.00
2023-11-01T01:34:13.010Z,0.00
2023-11-01T01:35:12.996Z,0.00
2023-11-01T01:36:13.149Z,0.00
2023-11-01T01:37:12.956Z,0.00
2023-11-01T01:38:12.973Z,0.00
2023-11-01T01:39:12.962Z,0.00
2023-11-01T01:40:12.922Z,0.00
2023-11-01T01:41:12.952Z,0.00
2023-11-01T01:42:12.902Z,0.00
2023-11-01T01:43:12.991Z,0.00
2023-11-01T01:44:12.991Z,0.00
2023-11-01T01:45:12.881Z,0.00
2023-11-01T01:46:12.880Z,0.00
2023-11-01T01:47:12.875Z,0.00
2023-11-01T01:48:13.065Z,0.00
2023-11-01T01:49:12.828Z,0.00
2023-11-01T01:50:12.832Z,0.00
2023-11-01T01:51:12.803Z,0.00
2023-11-01T01:52:12.819Z,0.00
2023-11-01T01:53:12.805Z,0.00
2023-11-01T01:54:12.775Z,0.00
2023-11-01T01:55:12.780Z,0.00
2023-11-01T01:56:12.835Z,0.00
2023-11-01T01:57:12.763Z,0.00
2023-11-01T01:58:12.752Z,0.00
2023-11-01T01:59:12.735Z,0.00
2023-11-01T02:00:12.714Z,0.00
2023-11-01T02:01:12.719Z,0.00
2023-11-01T02:02:12.756Z,0.00
2023-11-01T02:03:12.804Z,0.00
2023-11-01T02:04:12.664Z,0.00
2023-11-01T02:05:12.690Z,0.00
2023-11-01T02:06:12.643Z,0.00
2023-11-01T02:07:12.639Z,0.00
2023-11-01T02:08:12.654Z,0.00
2023-11-01T02:09:12.608Z,0.00
2023-11-01T02:10:12.600Z,0.00
2023-11-01T02:11:12.661Z,0.00
2023-11-01T02:12:12.603Z,0.00
2023-11-01T02:13:12.575Z,0.00
2023-11-01T02:14:12.585Z,0.00
2023-11-01T02:15:12.550Z,0.00
2023-11-01T02:16:12.555Z,0.00
2023-11-01T02:17:12.545Z,0.00
2023-11-01T02:18:12.546Z,0.00
2023-11-01T02:19:12.499Z,0.00
2023-11-01T02:20:12.722Z,0.00
2023-11-01T02:21:12.487Z,0.00
2023-11-01T02:22:12.464Z,0.00
2023-11-01T02:23:12.469Z,0.00
2023-11-01T02:24:12.472Z,0.00
2023-11-01T02:25:12.453Z,0.00
2023-11-01T02:26:12.486Z,0.00
2023-11-01T02:27:12.416Z,0.00
2023-11-01T02:28:12.408Z,0.00
2023-11-01T02:29:12.409Z,0.00
2023-11-01T02:30:12.391Z,0.00
2023-11-01T02:31:12.383Z,0.00
2023-11-01T02:32:12.390Z,0.00
2023-11-01T02:33:12.358Z,0.00
2023-11-01T02:34:12.341Z,0.00
2023-11-01T02:35:12.355Z,0.00
2023-11-01T02:36:12.315Z,0.00
2023-11-01T02:37:12.306Z,0.00
2023-11-01T02:38:12.318Z,0.00
2023-11-01T02:39:12.300Z,0.00
2023-11-01T02:40:12.300Z,0.00
2023-11-01T02:41:12.279Z,0.00
2023-11-01T02:42:12.252Z,0.00
2023-11-01T02:43:12.241Z,0.00
2023-11-01T02:44:12.315Z,0.00
2023-11-01T02:45:12.233Z,0.00
2023-11-01T02:46:12.239Z,0.00
2023-11-01T02:47:12.223Z,0.00
2023-11-01T02:48:12.203Z,0.00
2023-11-01T02:49:12.190Z,0.00
2023-11-01T02:50:12.210Z,0.00
2023-11-01T02:51:12.156Z,0.00
2023-11-01T02:52:12.144Z,0.00
2023-11-01T02:53:12.168Z,0.00
2023-11-01T02:54:12.139Z,0.00
2023-11-01T02:55:12.124Z,0.00
2023-11-01T02:56:12.151Z,0.00
2023-11-01T02:57:12.095Z,0.00
2023-11-01T02:58:12.095Z,0.00
2023-11-01T02:59:12.116Z,0.00
2023-11-01T03:00:12.085Z,0.00
2023-11-01T03:01:12.043Z,0.00
2023-11-01T03:02:12.081Z,0.00
2023-11-01T03:03:12.046Z,0.00
2023-11-01T03:04:12.022Z,0.00
2023-11-01T03:05:12.031Z,0.00
2023-11-01T03:06:11.990Z,0.00
2023-11-01T03:07:12.013Z,0.00
2023-11-01T03:08:12.161Z,0.00
2023-11-01T03:09:11.973Z,0.00
2023-11-01T03:10:11.956Z,0.00
2023-11-01T03:11:11.957Z,0.00
2023-11-01T03:12:11.962Z,0.00
2023-11-01T03:13:11.912Z,0.00
2023-11-01T03:14:11.968Z,0.00
2023-11-01T03:15:11.892Z,0.00
2023-11-01T03:16:11.895Z,0.00
2023-11-01T03:17:11.921Z,0.00
2023-11-01T03:18:11.874Z,0.00
2023-11-01T03:19:11.857Z,0.00
2023-11-01T03:20:11.875Z,0.00
2023-11-01T03:21:11.844Z,0.00
2023-11-01T03:22:11.829Z,0.00
2023-11-01T03:23:11.840Z,0.00
2023-11-01T03:24:11.809Z,0.00
2023-11-01T03:25:11.785Z,0.00
2023-11-01T03:26:11.856Z,0.00
2023-11-01T03:27:11.761Z,0.00
2023-11-01T03:28:11.788Z,0.00
2023-11-01T03:29:11.781Z,0.00
2023-11-01T03:30:11.730Z,0.00
2023-11-01T03:31:11.778Z,0.00
2023-11-01T03:32:11.732Z,0.00
2023-11-01T03:33:11.843Z,0.00
2023-11-01T03:34:11.701Z,0.00
2023-11-01T03:35:11.759Z,0.00
2023-11-01T03:36:11.676Z,0.00
2023-11-01T03:37:11.656Z,0.00
2023-11-01T03:38:11.728Z,0.00
2023-11-01T03:39:11.636Z,0.00
2023-11-01T03:40:11.675Z,0.00
2023-11-01T03:41:11.658Z,0.00
2023-11-01T03:42:11.604Z,0.00
2023-11-01T03:43:11.592Z,0.00
2023-11-01T03:44:11.658Z,0.00
2023-11-01T03:45:11.587Z,0.00
2023-11-01T03:46:11.573Z,0.00
2023-11-01T03:47:11.566Z,0.00
2023-11-01T03:48:11.615Z,0.00
2023-11-01T03:49:11.533Z,0.00
2023-11-01T03:50:11.532Z,0.00
2023-11-01T03:51:11.500Z,0.00
2023-11-01T03:52:11.494Z,0.00
2023-11-01T03:53:11.484Z,0.00
2023-11-01T03:54:11.503Z,0.00
2023-11-01T03:55:11.461Z,0.00
2023-11-01T03:56:11.449Z,0.00
2023-11-01T03:57:11.452Z,0.00
2023-11-01T03:58:11.439Z,0.00
2023-11-01T03:59:11.460Z,0.00
2023-11-01T04:00:11.428Z,0.00
2023-11-01T04:01:11.401Z,0.00
2023-11-01T04:02:11.385Z,0.00
2023-11-01T04:03:11.415Z,0.00
2023-11-01T04:04:11.395Z,0.00
2023-11-01T04:05:11.353Z,0.00
2023-11-01T04:06:11.358Z,0.00
2023-11-01T04:07:11.337Z,0.00
2023-11-01T04:08:11.332Z,0.00
2023-11-01T04:09:11.309Z,0.00
2023-11-01T04:10:11.300Z,0.00
2023-11-01T04:11:11.282Z,0.00
2023-11-01T04:12:11.281Z,0.00
2023-11-01T04:13:11.272Z,0.00
2023-11-01T04:14:11.255Z,0.00
2023-11-01T04:15:11.245Z,0.00
2023-11-01T04:16:11.285Z,0.00
2023-11-01T04:17:11.238Z,0.00
2023-11-01T04:18:11.295Z,0.00
2023-11-01T04:19:11.210Z,0.00
2023-11-01T04:20:11.193Z,0.00
2023-11-01T04:21:11.191Z,0.00
2023-11-01T04:22:11.187Z,0.00
2023-11-01T04:23:11.198Z,0.00
2023-11-01T04:24:11.540Z,0.00
2023-11-01T04:25:11.137Z,0.00
2023-11-01T04:26:11.177Z,0.00
2023-11-01T04:27:11.141Z,0.00
2023-11-01T04:28:11.111Z,0.00
2023-11-01T04:29:11.088Z,0.00
2023-11-01T04:30:11.075Z,0.00
2023-11-01T04:31:11.087Z,0.00
2023-11-01T04:32:11.092Z,0.00
2023-11-01T04:33:11.107Z,0.00
2023-11-01T04:34:11.034Z,0.00
2023-11-01T04:35:11.025Z,0.00
2023-11-01T04:36:11.038Z,0.00
2023-11-01T04:37:11.023Z,0.00
2023-11-01T04:38:10.992Z,0.00
2023-11-01T04:39:10.979Z,0.00
2023-11-01T04:40:10.973Z,0.00
2023-11-01T04:41:11.049Z,0.00
2023-11-01T04:42:10.949Z,0.00
2023-11-01T04:43:10.935Z,0.00
2023-11-01T04:44:10.921Z,0.00
2023-11-01T04:45:10.937Z,0.00
2023-11-01T04:46:10.956Z,0.00
2023-11-01T04:47:10.891Z,0.00
2023-11-01T04:48:10.984Z,0.00
2023-11-01T04:49:10.879Z,0.00
2023-11-01T04:50:10.894Z,0.00
2023-11-01T04:51:10.845Z,0.00
2023-11-01T04:52:10.837Z,0.00
2023-11-01T04:53:10.824Z,0.00
2023-11-01T04:54:10.828Z,0.00
2023-11-01T04:55:10.813Z,0.00
2023-11-01T04:56:10.793Z,0.00
2023-11-01T04:57:10.782Z,0.00
2023-11-01T04:58:10.780Z,0.00
2023-11-01T04:59:10.789Z,0.00
2023-11-01T05:00:10.762Z,0.00
2023-11-01T05:01:10.784Z,0.00
2023-11-01T05:02:11.812Z,0.00
2023-11-01T05:03:10.800Z,0.00
2023-11-01T05:04:10.783Z,0.00
2023-11-01T05:05:10.689Z,0.00
2023-11-01T05:06:10.678Z,0.00
2023-11-01T05:07:10.672Z,0.00
2023-11-01T05:08:10.668Z,0.00
2023-11-01T05:09:10.657Z,0.00
2023-11-01T05:10:10.651Z,0.00
2023-11-01T05:11:10.632Z,0.00
2023-11-01T05:12:10.615Z,0.00
2023-11-01T05:13:10.703Z,0.00
2023-11-01T05:14:10.613Z,0.00
2023-11-01T05:15:10.583Z,0.00
2023-11-01T05:16:10.588Z,0.00
2023-11-01T05:17:10.560Z,0.00
2023-11-01T05:18:10.673Z,0.00
2023-11-01T05:19:10.542Z,0.00
2023-11-01T05:20:10.554Z,0.00
2023-11-01T05:21:10.517Z,0.00
2023-11-01T05:22:10.504Z,0.00
2023-11-01T05:23:10.512Z,0.00
2023-11-01T05:24:10.495Z,0.00
2023-11-01T05:25:10.476Z,0.00
2023-11-01T05:26:10.459Z,0.00
2023-11-01T05:27:10.478Z,0.00
2023-11-01T05:28:10.559Z,0.00
2023-11-01T05:29:10.440Z,0.00
2023-11-01T05:30:10.418Z,0.00
2023-11-01T05:31:10.463Z,0.00
2023-11-01T05:32:10.413Z,0.00
2023-11-01T05:33:10.461Z,0.00
2023-11-01T05:34:10.367Z,0.00
2023-11-01T05:35:10.359Z,0.00
2023-11-01T05:36:10.385Z,4.00
2023-11-01T05:37:10.356Z,4.00
2023-11-01T05:38:10.326Z,4.00
2023-11-01T05:39:10.317Z,4.00
2023-11-01T05:40:10.304Z,4.00
2023-11-01T05:41:10.312Z,0.00
2023-11-01T05:42:10.296Z,4.00
2023-11-01T05:43:10.272Z,4.00
2023-11-01T05:44:10.267Z,8.00
2023-11-01T05:45:10.257Z,4.00
2023-11-01T05:46:10.267Z,4.00
2023-11-01T05:47:10.229Z,8.00
2023-11-01T05:48:10.636Z,8.00
2023-11-01T05:49:10.210Z,4.00
2023-11-01T05:50:10.195Z,8.00
2023-11-01T05:51:10.199Z,8.00
2023-11-01T05:52:10.193Z,8.00
2023-11-01T05:53:10.616Z,12.00
2023-11-01T05:54:10.151Z,16.00
2023-11-01T05:55:18.034Z,16.00
2023-11-01T05:56:11.170Z,20.00
2023-11-01T05:57:10.118Z,24.00
2023-11-01T05:58:10.105Z,24.00
2023-11-01T05:59:10.094Z,28.00
2023-11-01T06:00:10.102Z,32.00
2023-11-01T06:01:10.080Z,32.00
2023-11-01T06:02:10.079Z,36.00
2023-11-01T06:03:10.342Z,40.00
2023-11-01T06:04:10.116Z,40.00
2023-11-01T06:05:10.041Z,48.00
2023-11-01T06:06:10.036Z,48.00
2023-11-01T06:07:10.020Z,52.00
2023-11-01T06:08:10.047Z,56.00
2023-11-01T06:09:09.995Z,64.00
2023-11-01T06:10:09.999Z,64.00
2023-11-01T06:11:09.966Z,68.00
2023-11-01T06:12:09.953Z,72.00
2023-11-01T06:13:09.947Z,76.00
2023-11-01T06:14:09.966Z,76.00
2023-11-01T06:15:09.951Z,84.00
2023-11-01T06:16:09.913Z,88.00
2023-11-01T06:17:09.898Z,96.00
2023-11-01T06:18:10.083Z,100.00
2023-11-01T06:19:09.889Z,104.00
2023-11-01T06:20:09.862Z,108.00
2023-11-01T06:21:09.855Z,112.00
2023-11-01T06:22:09.842Z,120.00
2023-11-01T06:23:09.837Z,124.00
2023-11-01T06:24:09.846Z,132.00
2023-11-01T06:25:09.811Z,144.00
2023-11-01T06:26:09.805Z,152.00
2023-11-01T06:27:09.787Z,164.00
2023-11-01T06:28:10.154Z,168.00
2023-11-01T06:29:09.764Z,164.00
2023-11-01T06:30:09.763Z,164.00
2023-11-01T06:31:09.741Z,164.00
2023-11-01T06:32:09.734Z,164.00
2023-11-01T06:33:09.851Z,168.00
2023-11-01T06:34:09.794Z,176.00
2023-11-01T06:35:09.714Z,184.00
2023-11-01T06:36:09.781Z,196.00
2023-11-01T06:37:09.696Z,212.00
2023-11-01T06:38:09.674Z,224.00
2023-11-01T06:39:09.657Z,228.00
2023-11-01T06:40:09.674Z,236.00
2023-11-01T06:41:09.634Z,268.00
2023-11-01T06:42:09.641Z,272.00
2023-11-01T06:43:09.612Z,288.00
2023-11-01T06:44:09.598Z,308.00
2023-11-01T06:45:09.597Z,292.00
2023-11-01T06:46:09.578Z,296.00
2023-11-01T06:47:09.590Z,308.00
2023-11-01T06:48:09.643Z,316.00
2023-11-01T06:49:09.553Z,332.00
2023-11-01T06:50:09.544Z,308.00
2023-11-01T06:51:09.543Z,292.00
2023-11-01T06:52:09.526Z,304.00
2023-11-01T06:53:09.519Z,308.00
2023-11-01T06:54:09.493Z,312.00
2023-11-01T06:55:09.489Z,348.00
2023-11-01T06:56:09.502Z,340.00
2023-11-01T06:57:09.488Z,360.00
2023-11-01T06:58:09.451Z,388.00
2023-11-01T06:59:09.437Z,420.00
2023-11-01T07:00:09.433Z,420.00
2023-11-01T07:01:09.465Z,408.00
2023-11-01T07:02:09.404Z,388.00
2023-11-01T07:03:12.092Z,384.00
2023-11-01T07:04:09.432Z,416.00
2023-11-01T07:05:09.437Z,452.00
2023-11-01T07:06:09.389Z,472.00
2023-11-01T07:07:12.195Z,464.00
2023-11-01T07:08:09.340Z,488.00
2023-11-01T07:09:09.334Z,488.00
2023-11-01T07:10:09.334Z,540.00
2023-11-01T07:11:09.308Z,548.00
2023-11-01T07:12:09.311Z,552.00
2023-11-01T07:13:09.286Z,552.00
2023-11-01T07:14:09.278Z,556.00
2023-11-01T07:15:09.274Z,588.00
2023-11-01T07:16:09.275Z,640.00
2023-11-01T07:17:09.333Z,692.00
2023-11-01T07:18:09.310Z,716.00
2023-11-01T07:19:09.245Z,744.00
2023-11-01T07:20:09.223Z,792.00
2023-11-01T07:21:09.204Z,820.00
2023-11-01T07:22:09.189Z,880.00
2023-11-01T07:23:09.187Z,948.00
2023-11-01T07:24:09.177Z,1024.00
2023-11-01T07:25:09.156Z,1064.00
2023-11-01T07:26:09.193Z,1084.00
2023-11-01T07:27:09.135Z,1080.00
2023-11-01T07:28:09.146Z,1120.00
2023-11-01T07:29:09.123Z,1164.00
2023-11-01T07:30:09.116Z,1232.00
2023-11-01T07:31:09.124Z,1280.00
2023-11-01T07:32:09.075Z,1332.00
2023-11-01T07:33:09.192Z,1376.00
2023-11-01T07:34:09.077Z,1500.00
2023-11-01T07:35:09.044Z,1712.00
2023-11-01T07:36:09.034Z,2036.00
2023-11-01T07:37:09.078Z,2388.00
2023-11-01T07:38:09.023Z,2860.00
2023-11-01T07:39:09.000Z,3300.00
2023-11-01T07:40:08.996Z,3876.00
2023-11-01T07:41:08.974Z,4648.00
2023-11-01T07:42:08.988Z,5852.00
2023-11-01T07:43:08.975Z,7432.00
2023-11-01T07:44:08.961Z,8576.00
2023-11-01T07:45:08.936Z,8292.00
2023-11-01T07:46:08.987Z,9672.00
2023-11-01T07:47:08.922Z,17472.00
2023-11-01T07:48:08.963Z,19520.00
2023-11-01T07:49:08.897Z,13284.00
2023-11-01T07:50:11.578Z,34336.00
2023-11-01T07:51:08.875Z,11772.00
2023-11-01T07:52:08.865Z,14132.00
2023-11-01T07:53:08.843Z,40000.00
2023-11-01T07:54:08.831Z,39712.00
2023-11-01T07:55:08.829Z,31200.00
2023-11-01T07:56:08.822Z,28320.00
2023-11-01T07:57:08.809Z,22848.00
2023-11-01T07:58:08.788Z,40544.00
2023-11-01T07:59:08.777Z,45504.00
2023-11-01T08:00:08.792Z,42272.00
2023-11-01T08:01:08.785Z,37536.00
2023-11-01T08:02:08.749Z,31712.00
2023-11-01T08:03:08.857Z,28160.00
2023-11-01T08:04:08.817Z,23456.00
2023-11-01T08:05:08.748Z,26560.00
2023-11-01T08:06:08.707Z,32992.00
2023-11-01T08:07:08.696Z,32480.00
2023-11-01T08:08:08.684Z,35776.00
2023-11-01T08:09:08.669Z,37536.00
2023-11-01T08:10:08.666Z,39168.00
2023-11-01T08:11:08.670Z,30720.00
2023-11-01T08:12:08.640Z,21728.00
2023-11-01T08:13:10.656Z,16960.00
2023-11-01T08:14:08.631Z,18304.00
2023-11-01T08:15:08.624Z,15188.00
2023-11-01T08:16:08.630Z,7484.00
2023-11-01T08:17:08.632Z,14572.00
2023-11-01T08:18:08.664Z,26784.00
2023-11-01T08:19:08.561Z,26784.00
2023-11-01T08:20:08.564Z,27136.00
2023-11-01T08:21:08.536Z,41216.00
2023-11-01T08:22:08.524Z,40032.00
2023-11-01T08:23:08.517Z,27904.00
2023-11-01T08:24:08.512Z,27744.00
2023-11-01T08:25:08.514Z,35264.00
2023-11-01T08:26:08.490Z,25312.00
2023-11-01T08:27:08.480Z,17152.00
2023-11-01T08:28:08.464Z,18912.00
2023-11-01T08:29:08.472Z,12564.00
2023-11-01T08:30:08.444Z,6192.00
2023-11-01T08:31:08.428Z,7644.00
2023-11-01T08:32:08.491Z,6692.00
2023-11-01T08:33:08.593Z,5560.00
2023-11-01T08:34:08.431Z,6676.00
2023-11-01T08:35:08.386Z,8048.00
2023-11-01T08:36:08.372Z,23712.00
2023-11-01T08:37:08.365Z,31552.00
2023-11-01T08:38:08.359Z,32160.00
2023-11-01T08:39:08.375Z,32224.00
2023-11-01T08:40:08.367Z,25824.00
2023-11-01T08:41:08.318Z,7988.00
2023-11-01T08:42:08.311Z,5532.00
2023-11-01T08:43:08.308Z,6128.00
2023-11-01T08:44:08.302Z,12536.00
2023-11-01T08:45:08.295Z,13552.00
2023-11-01T08:46:08.275Z,12760.00
2023-11-01T08:47:10.472Z,11872.00
2023-11-01T08:48:08.385Z,19584.00
2023-11-01T08:49:08.262Z,18048.00
2023-11-01T08:50:08.221Z,13096.00
2023-11-01T08:51:08.208Z,14156.00
2023-11-01T08:52:08.211Z,22112.00
2023-11-01T08:53:08.242Z,28576.00
2023-11-01T08:54:08.256Z,31520.00
2023-11-01T08:55:08.187Z,43904.00
2023-11-01T08:56:08.152Z,49888.00
2023-11-01T08:57:08.155Z,65632.00
2023-11-01T08:58:08.153Z,69632.00
2023-11-01T08:59:08.131Z,71744.00
2023-11-01T09:00:08.164Z,70848.00
2023-11-01T09:01:08.104Z,59840.00
2023-11-01T09:02:15.484Z,63808.00
2023-11-01T09:03:09.170Z,74112.00
2023-11-01T09:04:08.125Z,67776.00
2023-11-01T09:05:08.052Z,54400.00
2023-11-01T09:06:08.062Z,45888.00
2023-11-01T09:07:08.049Z,50720.00
2023-11-01T09:08:08.021Z,57824.00
2023-11-01T09:09:08.018Z,55776.00
2023-11-01T09:10:08.001Z,76800.00
2023-11-01T09:11:07.996Z,80768.00
2023-11-01T09:12:07.989Z,80640.00
2023-11-01T09:13:07.968Z,82976.00
2023-11-01T09:14:07.958Z,75648.00
2023-11-01T09:15:07.941Z,63296.00
2023-11-01T09:16:07.956Z,67680.00
2023-11-01T09:17:07.928Z,63872.00
2023-11-01T09:18:07.949Z,53568.00
2023-11-01T09:19:07.900Z,60224.00
2023-11-01T09:20:07.917Z,75264.00
2023-11-01T09:21:07.908Z,73952.00
2023-11-01T09:22:07.870Z,67456.00
2023-11-01T09:23:07.861Z,72672.00
2023-11-01T09:24:07.850Z,74400.00
2023-11-01T09:25:07.848Z,66016.00
2023-11-01T09:26:07.828Z,71648.00
2023-11-01T09:27:07.842Z,77568.00
2023-11-01T09:28:07.807Z,81216.00
2023-11-01T09:29:07.795Z,80384.00
2023-11-01T09:30:07.950Z,82432.00
2023-11-01T09:31:07.781Z,82176.00
2023-11-01T09:32:07.784Z,83712.00
2023-11-01T09:33:07.863Z,82560.00
2023-11-01T09:34:07.824Z,82720.00
2023-11-01T09:35:07.746Z,82944.00
2023-11-01T09:36:07.795Z,82496.00
2023-11-01T09:37:07.709Z,85312.00
2023-11-01T09:38:07.702Z,85408.00
2023-11-01T09:39:07.705Z,88672.00
2023-11-01T09:40:07.685Z,86528.00
2023-11-01T09:41:07.673Z,86464.00
2023-11-01T09:42:07.662Z,83392.00
2023-11-01T09:43:07.656Z,83040.00
2023-11-01T09:44:07.652Z,79488.00
2023-11-01T09:45:07.633Z,82784.00
2023-11-01T09:46:07.797Z,81408.00
2023-11-01T09:47:07.625Z,79168.00
2023-11-01T09:48:07.723Z,84320.00
2023-11-01T09:49:07.613Z,84352.00
2023-11-01T09:50:07.582Z,84608.00
2023-11-01T09:51:07.605Z,87264.00
2023-11-01T09:52:07.612Z,86016.00
2023-11-01T09:53:07.572Z,81920.00
2023-11-01T09:54:07.543Z,85216.00
2023-11-01T09:55:07.523Z,84320.00
2023-11-01T09:56:07.521Z,81984.00
2023-11-01T09:57:07.546Z,83040.00
2023-11-01T09:58:07.504Z,82688.00
2023-11-01T09:59:07.492Z,81152.00
2023-11-01T10:00:07.503Z,81664.00
2023-11-01T10:01:07.491Z,82720.00
2023-11-01T10:02:07.480Z,82560.00
2023-11-01T10:03:07.487Z,81248.00
2023-11-01T10:04:07.523Z,86112.00
2023-11-01T10:05:07.472Z,84384.00
2023-11-01T10:06:07.415Z,85856.00
2023-11-01T10:07:07.432Z,86304.00
2023-11-01T10:08:07.411Z,86720.00
2023-11-01T10:09:07.384Z,86720.00
2023-11-01T10:10:07.377Z,86944.00
2023-11-01T10:11:07.394Z,86656.00
2023-11-01T10:12:07.382Z,85600.00
2023-11-01T10:13:07.342Z,85760.00
2023-11-01T10:14:07.333Z,85344.00
2023-11-01T10:15:07.372Z,82688.00
2023-11-01T10:16:07.393Z,74528.00
2023-11-01T10:17:07.338Z,33472.00
2023-11-01T10:18:07.386Z,7600.00
2023-11-01T10:19:07.308Z,6072.00
2023-11-01T10:20:07.274Z,4796.00
2023-11-01T10:21:07.284Z,6228.00
2023-11-01T10:22:07.256Z,6936.00
2023-11-01T10:23:07.242Z,8744.00
2023-11-01T10:24:07.256Z,9872.00
2023-11-01T10:25:07.236Z,7984.00
2023-11-01T10:26:07.230Z,6744.00
2023-11-01T10:27:07.223Z,6012.00
2023-11-01T10:28:07.188Z,5392.00
2023-11-01T10:29:07.180Z,5804.00
2023-11-01T10:30:07.211Z,5924.00
2023-11-01T10:31:07.160Z,6228.00
2023-11-01T10:32:07.152Z,7100.00
2023-11-01T10:33:07.234Z,7908.00
2023-11-01T10:34:07.223Z,7344.00
2023-11-01T10:35:07.137Z,7028.00
2023-11-01T10:36:07.137Z,7792.00
2023-11-01T10:37:07.107Z,7756.00
2023-11-01T10:38:07.089Z,7628.00
2023-11-01T10:39:07.107Z,7960.00
2023-11-01T10:40:07.093Z,8072.00
2023-11-01T10:41:07.054Z,8624.00
2023-11-01T10:42:07.086Z,8516.00
2023-11-01T10:43:07.036Z,8808.00
2023-11-01T10:44:07.085Z,9248.00
2023-11-01T10:45:07.051Z,8552.00
2023-11-01T10:46:07.033Z,7300.00
2023-11-01T10:47:06.988Z,6072.00
2023-11-01T10:48:07.382Z,5676.00
2023-11-01T10:49:06.979Z,5880.00
2023-11-01T10:50:06.962Z,5948.00
2023-11-01T10:51:06.995Z,5872.00
2023-11-01T10:52:06.934Z,5844.00
2023-11-01T10:53:06.934Z,5808.00
2023-11-01T10:54:07.184Z,5992.00
2023-11-01T10:55:06.895Z,5676.00
2023-11-01T10:56:06.917Z,4684.00
2023-11-01T10:57:06.912Z,4372.00
2023-11-01T10:58:06.892Z,4716.00
2023-11-01T10:59:06.870Z,5220.00
2023-11-01T11:00:06.885Z,5764.00
2023-11-01T11:01:06.833Z,6056.00
2023-11-01T11:02:06.823Z,5692.00
2023-11-01T11:03:06.934Z,5688.00
2023-11-01T11:04:06.878Z,6400.00
2023-11-01T11:05:07.390Z,6176.00
2023-11-01T11:06:06.779Z,5848.00
2023-11-01T11:07:15.557Z,6088.00
2023-11-01T11:08:07.773Z,5452.00
2023-11-01T11:09:06.745Z,5144.00
2023-11-01T11:10:06.796Z,4648.00
2023-11-01T11:11:06.729Z,4336.00
2023-11-01T11:12:06.741Z,3400.00
2023-11-01T11:13:06.711Z,3484.00
2023-11-01T11:14:06.691Z,3584.00
2023-11-01T11:15:06.683Z,2952.00
2023-11-01T11:16:06.747Z,2720.00
2023-11-01T11:17:06.705Z,2596.00
2023-11-01T11:18:06.658Z,2632.00
2023-11-01T11:19:06.636Z,3280.00
2023-11-01T11:20:06.713Z,3528.00
2023-11-01T11:21:06.665Z,3256.00
2023-11-01T11:22:06.707Z,3288.00
2023-11-01T11:23:06.591Z,3800.00
2023-11-01T11:24:06.615Z,4816.00
2023-11-01T11:25:06.566Z,5516.00
2023-11-01T11:26:06.567Z,6416.00
2023-11-01T11:27:06.567Z,6012.00
2023-11-01T11:28:06.681Z,5436.00
2023-11-01T11:29:06.526Z,5364.00
2023-11-01T11:30:06.543Z,5976.00
2023-11-01T11:31:06.553Z,5832.00
2023-11-01T11:32:06.494Z,5376.00
2023-11-01T11:33:06.605Z,4864.00
2023-11-01T11:34:06.479Z,4392.00
2023-11-01T11:35:06.455Z,4732.00
2023-11-01T11:36:06.502Z,5244.00
2023-11-01T11:37:06.453Z,5736.00
2023-11-01T11:38:06.427Z,6480.00
2023-11-01T11:39:06.530Z,5944.00
2023-11-01T11:40:06.417Z,6312.00
2023-11-01T11:41:06.402Z,5496.00
2023-11-01T11:42:06.406Z,4980.00
2023-11-01T11:43:06.369Z,4816.00
2023-11-01T11:44:06.387Z,4768.00
2023-11-01T11:45:06.429Z,4484.00
2023-11-01T11:46:06.366Z,4752.00
2023-11-01T11:47:06.327Z,4480.00
2023-11-01T11:48:06.391Z,3928.00
2023-11-01T11:49:06.316Z,3112.00
2023-11-01T11:50:06.331Z,3324.00
2023-11-01T11:51:06.323Z,4784.00
2023-11-01T11:52:06.340Z,5492.00
2023-11-01T11:53:06.270Z,5080.00
2023-11-01T11:54:06.335Z,4752.00
2023-11-01T11:55:06.242Z,4668.00
2023-11-01T11:56:06.231Z,4564.00
2023-11-01T11:57:06.257Z,4872.00
2023-11-01T11:58:06.213Z,4224.00
2023-11-01T11:59:06.218Z,3896.00
2023-11-01T12:00:06.281Z,4528.00
2023-11-01T12:01:06.229Z,4244.00
2023-11-01T12:02:06.178Z,3836.00
2023-11-01T12:03:06.267Z,4104.00
2023-11-01T12:04:06.200Z,5092.00
2023-11-01T12:05:06.134Z,4524.00
2023-11-01T12:06:06.162Z,3840.00
2023-11-01T12:07:06.111Z,2920.00
2023-11-01T12:08:06.125Z,2628.00
2023-11-01T12:09:06.161Z,3240.00
2023-11-01T12:10:06.098Z,3556.00
2023-11-01T12:11:06.087Z,3184.00
2023-11-01T12:12:06.082Z,2692.00
2023-11-01T12:13:06.075Z,2340.00
2023-11-01T12:14:06.034Z,1988.00
2023-11-01T12:15:06.057Z,1756.00
2023-11-01T12:16:06.089Z,1748.00
2023-11-01T12:17:06.011Z,1824.00
2023-11-01T12:18:06.071Z,2228.00
2023-11-01T12:19:06.009Z,2716.00
2023-11-01T12:20:05.981Z,2916.00
2023-11-01T12:21:06.023Z,3032.00
2023-11-01T12:22:08.666Z,3312.00
2023-11-01T12:23:05.964Z,3336.00
2023-11-01T12:24:05.986Z,3212.00
2023-11-01T12:25:05.910Z,3596.00
2023-11-01T12:26:05.902Z,3672.00
2023-11-01T12:27:06.062Z,3256.00
2023-11-01T12:28:05.882Z,2988.00
2023-11-01T12:29:05.870Z,2696.00
2023-11-01T12:30:05.890Z,2792.00
2023-11-01T12:31:06.027Z,2848.00
2023-11-01T12:32:05.875Z,2464.00
2023-11-01T12:33:05.913Z,2480.00
2023-11-01T12:34:05.930Z,2472.00
2023-11-01T12:35:05.894Z,2684.00
2023-11-01T12:36:05.845Z,2824.00
2023-11-01T12:37:05.780Z,3104.00